createdAt,value
2022-08-25T00:00:14.627Z,99.90
2022-08-25T00:02:43.773Z,99.90
2022-08-25T00:05:26.111Z,99.90
2022-08-25T00:07:54.709Z,99.90
2022-08-25T00:10:21.857Z,99.90
2022-08-25T00:12:49.128Z,99.90
2022-08-25T00:15:16.439Z,99.90
2022-08-25T00:17:43.522Z,99.90
2022-08-25T00:20:10.923Z,99.90
2022-08-25T00:22:37.978Z,99.90
2022-08-25T00:25:05.398Z,99.90
2022-08-25T00:27:32.422Z,99.90
2022-08-25T00:30:00.353Z,99.90
2022-08-25T00:32:27.528Z,99.90
2022-08-25T00:34:54.545Z,99.90
2022-08-25T00:37:21.671Z,99.90
2022-08-25T00:39:48.762Z,99.90
2022-08-25T00:42:16.456Z,99.90
2022-08-25T00:44:44.086Z,99.90
2022-08-25T00:47:11.178Z,99.90
2022-08-25T00:49:45.371Z,99.90
2022-08-25T00:52:20.766Z,99.90
2022-08-25T00:55:04.355Z,99.90
2022-08-25T00:57:40.870Z,99.90
2022-08-25T01:00:14.276Z,99.90
2022-08-25T01:02:41.729Z,99.90
2022-08-25T01:05:09.745Z,99.90
2022-08-25T01:07:37.464Z,99.90
2022-08-25T01:10:07.699Z,99.90
2022-08-25T01:12:36.602Z,99.90
2022-08-25T01:15:06.517Z,99.90
2022-08-25T01:17:45.566Z,99.90
2022-08-25T01:20:14.836Z,99.90
2022-08-25T01:22:42.165Z,99.90
2022-08-25T01:25:24.379Z,99.90
2022-08-25T01:27:51.993Z,99.90
2022-08-25T01:30:19.304Z,99.90
2022-08-25T01:32:46.566Z,99.90
2022-08-25T01:35:14.315Z,99.90
2022-08-25T01:37:41.352Z,99.90
2022-08-25T01:40:09.270Z,99.90
2022-08-25T01:43:01.316Z,99.90
2022-08-25T01:45:28.893Z,99.90
2022-08-25T01:47:56.018Z,99.90
2022-08-25T01:50:23.316Z,99.90
2022-08-25T01:52:55.728Z,99.90
2022-08-25T01:55:23.346Z,99.90
2022-08-25T01:57:50.459Z,99.90
2022-08-25T02:00:20.101Z,99.90
2022-08-25T02:02:47.312Z,99.90
2022-08-25T02:05:23.320Z,99.90
2022-08-25T02:07:50.864Z,99.90
2022-08-25T02:10:17.886Z,99.90
2022-08-25T02:12:45.137Z,99.90
2022-08-25T02:15:12.448Z,99.90
2022-08-25T02:17:39.579Z,99.90
2022-08-25T02:20:09.627Z,99.90
2022-08-25T02:22:37.048Z,99.90
2022-08-25T02:25:05.836Z,99.90
2022-08-25T02:27:32.987Z,99.90
2022-08-25T02:30:00.045Z,99.90
2022-08-25T02:32:27.885Z,99.90
2022-08-25T02:34:54.955Z,99.90
2022-08-25T02:37:22.030Z,99.90
2022-08-25T02:39:49.137Z,99.90
2022-08-25T02:42:16.164Z,99.90
2022-08-25T02:44:43.221Z,99.90
2022-08-25T02:47:10.292Z,99.90
2022-08-25T02:49:37.622Z,99.90
2022-08-25T02:52:05.409Z,99.90
2022-08-25T02:54:32.500Z,99.90
2022-08-25T02:57:00.028Z,99.90
2022-08-25T02:59:27.230Z,99.90
2022-08-25T03:01:54.308Z,99.90
2022-08-25T03:04:21.405Z,99.90
2022-08-25T03:06:48.498Z,99.90
2022-08-25T03:09:16.685Z,99.90
2022-08-25T03:11:43.978Z,99.90
2022-08-25T03:14:11.220Z,99.90
2022-08-25T03:16:38.669Z,99.90
2022-08-25T03:19:06.203Z,99.90
2022-08-25T03:21:33.249Z,99.90
2022-08-25T03:24:00.739Z,99.90
2022-08-25T03:26:46.528Z,99.90
2022-08-25T03:29:14.028Z,99.90
2022-08-25T03:31:43.046Z,99.90
2022-08-25T03:34:10.570Z,99.90
2022-08-25T03:36:38.019Z,99.90
2022-08-25T03:39:06.235Z,99.90
2022-08-25T03:41:33.370Z,99.90
2022-08-25T03:44:01.431Z,99.90
2022-08-25T03:46:34.199Z,99.90
2022-08-25T03:49:03.092Z,99.90
2022-08-25T03:51:33.412Z,99.90
2022-08-25T03:54:01.615Z,99.90
2022-08-25T03:56:29.004Z,99.90
2022-08-25T03:58:57.080Z,99.90
2022-08-25T04:01:25.552Z,99.90
2022-08-25T04:03:52.998Z,99.90
2022-08-25T04:06:20.488Z,99.90
2022-08-25T04:08:48.139Z,99.90
2022-08-25T04:11:18.423Z,99.90
2022-08-25T04:13:46.805Z,99.90
2022-08-25T04:16:16.325Z,99.90
2022-08-25T04:18:44.549Z,99.90
2022-08-25T04:21:12.424Z,99.90
2022-08-25T04:23:41.712Z,99.90
2022-08-25T04:26:11.242Z,99.90
2022-08-25T04:28:38.344Z,99.90
2022-08-25T04:31:14.590Z,99.90
2022-08-25T04:33:42.344Z,99.90
2022-08-25T04:36:12.473Z,99.90
2022-08-25T04:38:41.396Z,99.90
2022-08-25T04:41:10.533Z,99.90
2022-08-25T04:43:39.891Z,99.90
2022-08-25T04:46:22.614Z,99.90
2022-08-25T04:48:53.337Z,99.90
2022-08-25T04:51:27.865Z,99.90
2022-08-25T04:53:55.287Z,99.90
2022-08-25T04:56:25.180Z,99.90
2022-08-25T04:58:53.968Z,99.90
2022-08-25T05:01:24.883Z,99.90
2022-08-25T05:03:59.520Z,99.90
2022-08-25T05:06:28.440Z,99.90
2022-08-25T05:08:57.165Z,99.90
2022-08-25T05:11:24.940Z,99.90
2022-08-25T05:13:54.639Z,99.90
2022-08-25T05:16:23.907Z,99.90
2022-08-25T05:18:52.183Z,99.90
2022-08-25T05:21:21.916Z,99.90
2022-08-25T05:23:49.711Z,99.90
2022-08-25T05:26:22.262Z,99.90
2022-08-25T05:28:51.481Z,99.90
2022-08-25T05:31:20.046Z,99.90
2022-08-25T05:33:47.451Z,99.90
2022-08-25T05:36:15.741Z,99.90
2022-08-25T05:38:43.432Z,99.90
2022-08-25T05:41:15.779Z,99.90
2022-08-25T05:43:44.722Z,99.90
2022-08-25T05:46:13.113Z,99.90
2022-08-25T05:48:40.511Z,99.90
2022-08-25T05:51:10.503Z,99.90
2022-08-25T05:53:39.850Z,99.90
2022-08-25T05:56:07.413Z,99.90
2022-08-25T05:58:34.663Z,99.90
2022-08-25T06:01:20.370Z,99.90
2022-08-25T06:03:48.187Z,99.90
2022-08-25T06:06:16.904Z,99.90
2022-08-25T06:08:45.124Z,99.90
2022-08-25T06:11:13.719Z,99.90
2022-08-25T06:13:41.202Z,99.90
2022-08-25T06:16:08.581Z,99.90
2022-08-25T06:18:35.873Z,99.90
2022-08-25T06:21:14.303Z,99.90
2022-08-25T06:23:42.389Z,99.90
2022-08-25T06:26:20.636Z,99.90
2022-08-25T06:28:50.822Z,99.90
2022-08-25T06:31:19.146Z,99.90
2022-08-25T06:33:47.174Z,99.90
2022-08-25T06:36:15.527Z,99.90
2022-08-25T06:38:42.648Z,99.90
2022-08-25T06:41:13.094Z,99.90
2022-08-25T06:43:48.095Z,99.90
2022-08-25T06:46:23.086Z,99.90
2022-08-25T06:49:03.780Z,99.90
2022-08-25T06:51:30.803Z,99.90
2022-08-25T06:53:57.847Z,99.90
2022-08-25T06:56:24.853Z,99.90
2022-08-25T06:58:53.911Z,99.90
2022-08-25T07:01:26.333Z,99.90
2022-08-25T07:03:59.436Z,99.90
2022-08-25T07:06:31.698Z,99.90
2022-08-25T07:08:59.688Z,99.90
2022-08-25T07:11:27.419Z,99.90
2022-08-25T07:13:54.682Z,99.90
2022-08-25T07:16:22.043Z,99.90
2022-08-25T07:18:49.720Z,99.90
2022-08-25T07:21:18.764Z,99.90
2022-08-25T07:23:47.959Z,99.90
2022-08-25T07:26:39.094Z,99.90
2022-08-25T07:29:42.233Z,99.90
2022-08-25T07:32:09.873Z,99.90
2022-08-25T07:34:56.325Z,99.90
2022-08-25T07:37:48.410Z,99.90
2022-08-25T07:40:14.290Z,99.90
2022-08-25T07:42:42.416Z,99.90
2022-08-25T07:45:11.297Z,99.90
2022-08-25T07:47:39.025Z,99.90
2022-08-25T07:50:12.364Z,99.90
2022-08-25T07:52:42.716Z,99.90
2022-08-25T07:55:11.056Z,99.90
2022-08-25T07:57:40.936Z,99.90
2022-08-25T08:00:10.972Z,99.90
2022-08-25T08:02:42.149Z,99.90
2022-08-25T08:05:10.612Z,99.90
2022-08-25T08:07:43.311Z,99.90
2022-08-25T08:13:01.939Z,99.90
2022-08-25T08:15:29.857Z,99.90
2022-08-25T08:17:59.096Z,99.90
2022-08-25T08:20:27.072Z,99.90
2022-08-25T08:22:55.779Z,99.90
2022-08-25T08:25:27.272Z,99.90
2022-08-25T08:27:55.463Z,99.90
2022-08-25T08:30:26.458Z,97.40
2022-08-25T08:33:11.364Z,96.00
2022-08-25T08:35:40.413Z,95.80
2022-08-25T08:38:14.953Z,95.40
2022-08-25T08:41:48.891Z,94.40
2022-08-25T08:44:57.068Z,94.70
2022-08-25T08:47:26.626Z,94.20
2022-08-25T08:50:03.808Z,94.00
2022-08-25T08:52:40.739Z,94.60
2022-08-25T08:55:15.886Z,93.90
2022-08-25T09:00:20.186Z,90.00
2022-08-25T09:03:06.463Z,88.20
2022-08-25T09:05:50.295Z,87.90
2022-08-25T09:08:20.428Z,90.10
2022-08-25T09:10:54.265Z,88.30
2022-08-25T09:14:01.941Z,87.30
2022-08-25T09:16:55.883Z,90.60
2022-08-25T09:19:41.781Z,86.40
2022-08-25T09:22:35.102Z,85.20
2022-08-25T09:28:30.452Z,87.00
2022-08-25T09:31:19.695Z,90.10
2022-08-25T09:33:46.895Z,89.60
2022-08-25T09:36:14.883Z,88.30
2022-08-25T09:38:42.136Z,88.30
2022-08-25T09:41:11.349Z,90.00
2022-08-25T09:43:44.694Z,91.40
2022-08-25T09:46:14.043Z,90.60
2022-08-25T09:48:57.454Z,90.50
2022-08-25T09:51:37.829Z,89.10
2022-08-25T09:54:15.303Z,89.90
2022-08-25T09:57:01.971Z,90.30
2022-08-25T09:59:35.894Z,90.70
2022-08-25T10:02:32.885Z,91.20
2022-08-25T10:04:59.978Z,91.30
2022-08-25T10:07:37.176Z,91.40
2022-08-25T10:10:17.714Z,90.70
2022-08-25T10:12:51.363Z,89.90
2022-08-25T10:15:29.365Z,90.70
2022-08-25T10:18:26.110Z,90.20
2022-08-25T10:21:07.410Z,91.10
2022-08-25T10:23:38.883Z,90.40
2022-08-25T10:26:15.073Z,90.90
2022-08-25T10:28:59.218Z,89.90
2022-08-25T10:31:41.569Z,90.60
2022-08-25T10:34:31.299Z,89.50
2022-08-25T10:37:36.070Z,91.00
2022-08-25T10:40:21.055Z,90.90
2022-08-25T10:42:54.329Z,89.60
2022-08-25T10:45:44.474Z,88.40
2022-08-25T10:48:45.141Z,90.40
2022-08-25T10:51:41.069Z,90.90
2022-08-25T10:54:25.787Z,90.50
2022-08-25T10:57:07.081Z,90.20
2022-08-25T11:00:03.571Z,87.10
2022-08-25T11:02:52.534Z,88.20
2022-08-25T11:05:49.074Z,86.40
2022-08-25T11:08:38.449Z,83.50
2022-08-25T11:11:08.952Z,88.90
2022-08-25T11:13:50.678Z,89.20
2022-08-25T11:16:25.647Z,86.20
2022-08-25T11:19:21.670Z,90.20
2022-08-25T11:21:57.292Z,87.70
2022-08-25T11:24:43.175Z,89.40
2022-08-25T11:27:17.717Z,86.20
2022-08-25T11:30:08.472Z,85.20
2022-08-25T11:32:37.943Z,85.70
2022-08-25T11:35:10.241Z,88.40
2022-08-25T11:38:08.208Z,87.60
2022-08-25T11:40:56.256Z,90.00
2022-08-25T11:43:50.187Z,85.80
2022-08-25T11:46:31.485Z,84.60
2022-08-25T11:49:22.730Z,87.10
2022-08-25T11:51:51.480Z,86.60
2022-08-25T11:54:41.659Z,85.90
2022-08-25T11:57:23.964Z,87.70
2022-08-25T11:59:54.293Z,87.10
2022-08-25T12:02:36.648Z,87.40
2022-08-25T12:05:12.126Z,88.60
2022-08-25T12:08:20.108Z,80.70
2022-08-25T12:11:01.346Z,78.40
2022-08-25T12:13:50.871Z,78.60
2022-08-25T12:16:36.382Z,78.30
2022-08-25T12:19:25.495Z,81.00
2022-08-25T12:21:55.106Z,77.90
2022-08-25T12:24:48.791Z,80.60
2022-08-25T12:27:53.629Z,86.50
2022-08-25T12:30:38.634Z,89.00
2022-08-25T12:33:34.355Z,89.00
2022-08-25T12:36:11.190Z,91.20
2022-08-25T12:38:53.024Z,91.10
2022-08-25T12:41:27.125Z,91.50
2022-08-25T12:44:31.727Z,91.10
2022-08-25T12:47:12.544Z,89.00
2022-08-25T12:49:40.142Z,86.30
2022-08-25T12:52:16.695Z,88.30
2022-08-25T12:54:58.790Z,90.20
2022-08-25T12:57:50.138Z,89.20
2022-08-25T13:00:23.739Z,88.70
2022-08-25T13:03:05.364Z,90.00
2022-08-25T13:06:14.080Z,90.70
2022-08-25T13:08:46.954Z,88.70
2022-08-25T13:11:43.275Z,89.50
2022-08-25T13:14:37.577Z,88.00
2022-08-25T13:17:06.181Z,91.00
2022-08-25T13:19:34.618Z,89.60
2022-08-25T13:22:15.556Z,90.40
2022-08-25T13:24:45.612Z,90.60
2022-08-25T13:27:28.426Z,90.80
2022-08-25T13:29:59.088Z,91.60
2022-08-25T13:32:32.428Z,92.30
2022-08-25T13:35:12.464Z,92.30
2022-08-25T13:37:41.338Z,92.40
2022-08-25T13:40:14.479Z,91.70
2022-08-25T13:42:55.916Z,92.30
2022-08-25T13:45:30.068Z,94.00
2022-08-25T13:47:59.456Z,94.50
2022-08-25T13:50:26.880Z,95.90
2022-08-25T13:53:21.478Z,96.10
2022-08-25T13:55:52.236Z,97.10
2022-08-25T13:58:44.530Z,97.40
2022-08-25T14:01:23.530Z,98.20
2022-08-25T14:04:23.362Z,98.30
2022-08-25T14:07:34.460Z,98.10
2022-08-25T14:10:07.361Z,98.40
2022-08-25T14:12:44.797Z,98.90
2022-08-25T14:15:26.093Z,98.70
2022-08-25T14:18:13.826Z,97.60
2022-08-25T14:20:47.577Z,97.90
2022-08-25T14:23:19.481Z,97.50
2022-08-25T14:25:47.694Z,99.10
2022-08-25T14:28:18.135Z,98.10
2022-08-25T14:30:52.299Z,98.90
2022-08-25T14:33:23.246Z,98.50
2022-08-25T14:35:54.305Z,98.80
2022-08-25T14:38:24.814Z,99.90
2022-08-25T14:40:53.600Z,99.50
2022-08-25T14:43:23.970Z,99.80
2022-08-25T14:45:52.109Z,99.90
2022-08-25T14:48:42.526Z,99.90
2022-08-25T14:51:12.044Z,99.20
2022-08-25T14:53:39.374Z,99.00
2022-08-25T14:56:10.179Z,99.20
2022-08-25T14:58:51.252Z,99.90
2022-08-25T15:01:29.251Z,99.40
2022-08-25T15:04:16.016Z,98.60
2022-08-25T15:06:45.664Z,99.60
2022-08-25T15:09:16.542Z,99.40
2022-08-25T15:11:46.875Z,98.80
2022-08-25T15:14:17.479Z,99.00
2022-08-25T15:16:48.281Z,99.50
2022-08-25T15:19:18.830Z,98.60
2022-08-25T15:21:48.068Z,99.20
2022-08-25T15:24:17.525Z,98.40
2022-08-25T15:29:28.026Z,98.70
2022-08-25T15:31:55.449Z,97.50
2022-08-25T15:34:22.665Z,99.00
2022-08-25T15:36:50.382Z,99.40
2022-08-25T15:39:19.209Z,98.40
2022-08-25T15:41:52.956Z,98.60
2022-08-25T15:44:21.181Z,99.10
2022-08-25T15:46:50.286Z,98.40
2022-08-25T15:49:20.863Z,99.40
2022-08-25T15:51:52.534Z,99.90
2022-08-25T15:54:21.007Z,99.40
2022-08-25T15:56:48.209Z,99.90
2022-08-25T15:59:15.293Z,99.90
2022-08-25T16:01:43.823Z,99.80
2022-08-25T16:04:11.523Z,99.90
2022-08-25T16:06:38.889Z,99.90
2022-08-25T16:09:07.277Z,99.90
2022-08-25T16:11:35.646Z,99.90
2022-08-25T16:14:06.387Z,99.90
2022-08-25T16:16:33.666Z,99.90
2022-08-25T16:19:01.836Z,99.90
2022-08-25T16:21:33.109Z,99.90
2022-08-25T16:24:05.454Z,99.90
2022-08-25T16:26:36.582Z,99.90
2022-08-25T16:29:06.551Z,99.90
2022-08-25T16:31:33.885Z,99.90
2022-08-25T16:34:01.813Z,99.90
2022-08-25T16:36:29.418Z,99.90
2022-08-25T16:38:57.910Z,99.90
2022-08-25T16:41:34.023Z,99.90
2022-08-25T16:44:11.265Z,99.90
2022-08-25T16:46:40.830Z,99.90
2022-08-25T16:49:09.249Z,99.90
2022-08-25T16:51:38.485Z,99.90
2022-08-25T16:54:25.696Z,99.90
2022-08-25T16:56:54.661Z,99.90
2022-08-25T16:59:23.569Z,99.90
2022-08-25T17:01:51.635Z,99.90
2022-08-25T17:04:18.913Z,99.90
2022-08-25T17:06:49.588Z,99.90
2022-08-25T17:09:23.911Z,99.90
2022-08-25T17:11:54.236Z,99.90
2022-08-25T17:14:22.155Z,99.90
2022-08-25T17:16:51.207Z,99.90
2022-08-25T17:19:18.963Z,99.90
2022-08-25T17:21:47.296Z,99.90
2022-08-25T17:24:17.428Z,99.90
2022-08-25T17:26:47.290Z,99.90
2022-08-25T17:29:17.426Z,99.90
2022-08-25T17:31:48.322Z,99.90
2022-08-25T17:34:16.942Z,99.90
2022-08-25T17:36:48.444Z,99.90
2022-08-25T17:39:18.304Z,99.90
2022-08-25T17:41:45.811Z,99.90
2022-08-25T17:44:13.776Z,99.90
2022-08-25T17:46:47.333Z,99.90
2022-08-25T17:49:17.212Z,99.90
2022-08-25T17:51:44.471Z,99.90
2022-08-25T17:54:12.650Z,99.90
2022-08-25T17:56:39.991Z,99.90
2022-08-25T17:59:08.170Z,99.90
2022-08-25T18:01:40.678Z,99.90
2022-08-25T18:04:15.605Z,99.90
2022-08-25T18:06:45.618Z,99.90
2022-08-25T18:09:13.053Z,99.90
2022-08-25T18:11:40.172Z,99.90
2022-08-25T18:14:10.746Z,99.90
2022-08-25T18:16:38.494Z,99.90
2022-08-25T18:19:09.440Z,99.90
2022-08-25T18:21:37.112Z,99.90
2022-08-25T18:24:05.271Z,99.90
2022-08-25T18:26:32.972Z,99.90
2022-08-25T18:29:00.718Z,99.90
2022-08-25T18:31:28.264Z,99.90
2022-08-25T18:33:55.493Z,99.90
2022-08-25T18:36:22.635Z,99.90
2022-08-25T18:39:09.073Z,99.90
2022-08-25T18:41:40.101Z,99.90
2022-08-25T18:44:07.755Z,99.90
2022-08-25T18:46:35.444Z,99.90
2022-08-25T18:49:03.591Z,99.90
2022-08-25T18:51:32.888Z,99.90
2022-08-25T18:54:01.230Z,99.90
2022-08-25T18:56:29.162Z,99.90
2022-08-25T18:58:57.172Z,99.90
2022-08-25T19:01:24.556Z,99.90
2022-08-25T19:03:51.745Z,99.90
2022-08-25T19:06:19.550Z,99.90
2022-08-25T19:08:48.151Z,99.90
2022-08-25T19:11:16.187Z,99.90
2022-08-25T19:13:43.949Z,99.90
2022-08-25T19:16:34.109Z,99.90
2022-08-25T19:19:02.526Z,99.90
2022-08-25T19:21:31.311Z,99.90
2022-08-25T19:24:00.659Z,99.90
2022-08-25T19:26:30.680Z,99.90
2022-08-25T19:28:58.019Z,99.90
2022-08-25T19:31:26.583Z,99.90
2022-08-25T19:33:55.800Z,99.90
2022-08-25T19:36:28.119Z,99.90
2022-08-25T19:38:58.678Z,99.90
2022-08-25T19:41:27.789Z,99.90
2022-08-25T19:43:57.470Z,99.90
2022-08-25T19:46:35.688Z,99.90
2022-08-25T19:49:16.260Z,99.90
2022-08-25T19:51:47.529Z,99.90
2022-08-25T19:54:24.287Z,99.90
2022-08-25T19:56:54.755Z,99.90
2022-08-25T19:59:40.467Z,99.90
2022-08-25T20:02:15.474Z,99.90
2022-08-25T20:04:49.222Z,99.90
2022-08-25T20:07:18.847Z,99.90
2022-08-25T20:09:46.107Z,99.90
2022-08-25T20:14:47.917Z,99.90
2022-08-25T20:17:24.685Z,99.90
2022-08-25T20:19:58.791Z,99.90
2022-08-25T20:22:28.306Z,99.90
2022-08-25T20:25:01.264Z,99.90
2022-08-25T20:27:35.866Z,99.90
2022-08-25T20:30:09.819Z,99.90
2022-08-25T20:32:37.344Z,99.90
2022-08-25T20:35:08.942Z,99.90
2022-08-25T20:37:36.697Z,99.90
2022-08-25T20:40:07.167Z,99.90
2022-08-25T20:42:34.768Z,99.90
2022-08-25T20:45:01.928Z,99.90
2022-08-25T20:47:29.117Z,99.90
2022-08-25T20:50:00.364Z,99.90
2022-08-25T20:52:32.014Z,99.90
2022-08-25T20:54:59.431Z,99.90
2022-08-25T20:57:26.937Z,99.90
2022-08-25T20:59:56.994Z,99.90
2022-08-25T21:02:25.713Z,99.90
2022-08-25T21:04:54.276Z,99.90
2022-08-25T21:07:24.909Z,99.90
2022-08-25T21:09:52.402Z,99.90
2022-08-25T21:12:20.682Z,99.90
2022-08-25T21:14:48.276Z,99.90
2022-08-25T21:17:16.363Z,99.90
2022-08-25T21:22:13.807Z,99.90
2022-08-25T21:24:41.023Z,99.90
2022-08-25T21:27:08.337Z,99.90
2022-08-25T21:29:35.751Z,99.90
2022-08-25T21:32:03.011Z,99.90
2022-08-25T21:34:31.156Z,99.90
2022-08-25T21:36:59.401Z,99.90
2022-08-25T21:39:28.790Z,99.90
2022-08-25T21:41:56.603Z,99.90
2022-08-25T21:44:23.750Z,99.90
2022-08-25T21:46:54.281Z,99.90
2022-08-25T21:49:23.042Z,99.90
2022-08-25T21:52:02.379Z,99.90
2022-08-25T21:54:32.222Z,99.90
2022-08-25T21:57:05.689Z,99.90
2022-08-25T21:59:36.691Z,99.90
2022-08-25T22:02:07.484Z,99.90
2022-08-25T22:04:35.820Z,99.90
2022-08-25T22:07:03.037Z,99.90
2022-08-25T22:09:31.361Z,99.90
2022-08-25T22:11:59.060Z,99.90
2022-08-25T22:14:26.770Z,99.90
2022-08-25T22:16:55.182Z,99.90
2022-08-25T22:19:22.757Z,99.90
2022-08-25T22:21:51.108Z,99.90
2022-08-25T22:24:19.403Z,99.90
2022-08-25T22:26:49.201Z,99.90
2022-08-25T22:29:24.847Z,99.90
2022-08-25T22:31:53.032Z,99.90
2022-08-25T22:34:30.283Z,99.90
2022-08-25T22:37:00.163Z,99.90
2022-08-25T22:39:28.438Z,99.90
2022-08-25T22:41:55.768Z,99.90
2022-08-25T22:44:23.508Z,99.90
2022-08-25T22:46:50.597Z,99.90
2022-08-25T22:49:18.089Z,99.90
2022-08-25T22:51:47.093Z,99.90
2022-08-25T22:54:15.233Z,99.90
2022-08-25T22:56:42.623Z,99.90
2022-08-25T22:59:13.197Z,99.90
2022-08-25T23:01:42.749Z,99.90
2022-08-25T23:04:10.695Z,99.90
2022-08-25T23:06:38.357Z,99.90
2022-08-25T23:09:08.085Z,99.90
2022-08-25T23:11:38.584Z,99.90
2022-08-25T23:14:10.249Z,99.90
2022-08-25T23:16:42.453Z,99.90
2022-08-25T23:19:11.125Z,99.90
2022-08-25T23:22:00.631Z,99.90
2022-08-25T23:24:30.268Z,99.90
2022-08-25T23:27:02.395Z,99.90
2022-08-25T23:29:31.903Z,99.90
2022-08-25T23:31:59.402Z,99.90
2022-08-25T23:34:27.227Z,99.90
2022-08-25T23:36:56.032Z,99.90
2022-08-25T23:39:23.170Z,99.90
2022-08-25T23:41:51.787Z,99.90
2022-08-25T23:44:20.237Z,99.90
2022-08-25T23:46:48.783Z,99.90
2022-08-25T23:49:18.954Z,99.90
2022-08-25T23:51:48.952Z,99.90
2022-08-25T23:54:18.947Z,99.90
2022-08-25T23:56:51.963Z,99.90
2022-08-25T23:59:25.262Z,99.90
